sensor_id;sensor_type;location;lat;lon;timestamp;pressure;altitude;pressure_sealevel;temperature;humidity
62059;BME280;48017;51.064;7.014;2023-01-04T00:01:41;101593.50;;;6.80;100.00
62059;BME280;48017;51.064;7.014;2023-01-04T00:04:06;101592.66;;;6.79;100.00
62059;BME280;48017;51.064;7.014;2023-01-04T00:06:32;101590.97;;;6.94;99.76
62059;BME280;48017;51.064;7.014;2023-01-04T00:08:57;101584.84;;;6.93;99.94
62059;BME280;48017;51.064;7.014;2023-01-04T00:11:23;101584.69;;;6.97;99.96
62059;BME280;48017;51.064;7.014;2023-01-04T00:13:51;101580.00;;;7.02;100.00
62059;BME280;48017;51.064;7.014;2023-01-04T00:16:19;101570.22;;;7.04;99.50
62059;BME280;48017;51.064;7.014;2023-01-04T00:18:44;101571.94;;;7.05;99.77
62059;BME280;48017;51.064;7.014;2023-01-04T00:21:16;101567.28;;;7.10;99.70
62059;BME280;48017;51.064;7.014;2023-01-04T00:23:43;101563.28;;;7.18;99.31
62059;BME280;48017;51.064;7.014;2023-01-04T00:26:11;101559.69;;;7.19;98.99
62059;BME280;48017;51.064;7.014;2023-01-04T00:28:37;101561.56;;;7.17;99.41
62059;BME280;48017;51.064;7.014;2023-01-04T00:31:04;101554.16;;;7.24;99.17
62059;BME280;48017;51.064;7.014;2023-01-04T00:33:30;101555.78;;;7.27;98.63
62059;BME280;48017;51.064;7.014;2023-01-04T00:36:01;101538.09;;;7.29;98.59
62059;BME280;48017;51.064;7.014;2023-01-04T00:38:26;101544.72;;;7.36;98.11
62059;BME280;48017;51.064;7.014;2023-01-04T00:40:52;101524.16;;;7.27;98.92
62059;BME280;48017;51.064;7.014;2023-01-04T00:43:17;101513.22;;;7.33;98.68
62059;BME280;48017;51.064;7.014;2023-01-04T00:45:42;101522.09;;;7.32;98.72
62059;BME280;48017;51.064;7.014;2023-01-04T00:48:08;101518.16;;;7.23;99.73
62059;BME280;48017;51.064;7.014;2023-01-04T00:50:33;101505.16;;;7.36;98.48
62059;BME280;48017;51.064;7.014;2023-01-04T00:52:59;101507.19;;;7.31;99.28
62059;BME280;48017;51.064;7.014;2023-01-04T00:55:24;101499.88;;;7.36;99.56
62059;BME280;48017;51.064;7.014;2023-01-04T00:57:49;101499.69;;;7.23;100.00
62059;BME280;48017;51.064;7.014;2023-01-04T01:00:15;101498.63;;;7.27;100.00
62059;BME280;48017;51.064;7.014;2023-01-04T01:02:40;101489.75;;;7.28;100.00
62059;BME280;48017;51.064;7.014;2023-01-04T01:05:06;101497.25;;;7.20;100.00
62059;BME280;48017;51.064;7.014;2023-01-04T01:07:31;101500.66;;;7.22;100.00
62059;BME280;48017;51.064;7.014;2023-01-04T01:09:57;101490.38;;;7.17;100.00
62059;BME280;48017;51.064;7.014;2023-01-04T01:12:22;101493.94;;;7.16;100.00
62059;BME280;48017;51.064;7.014;2023-01-04T01:14:47;101493.59;;;7.22;100.00
62059;BME280;48017;51.064;7.014;2023-01-04T01:17:13;101481.53;;;7.18;100.00
62059;BME280;48017;51.064;7.014;2023-01-04T01:19:38;101478.19;;;7.15;100.00
62059;BME280;48017;51.064;7.014;2023-01-04T01:22:03;101473.78;;;7.15;100.00
62059;BME280;48017;51.064;7.014;2023-01-04T01:24:29;101477.19;;;7.17;100.00
62059;BME280;48017;51.064;7.014;2023-01-04T01:26:54;101461.69;;;7.11;100.00
62059;BME280;48017;51.064;7.014;2023-01-04T01:29:20;101470.34;;;7.13;100.00
62059;BME280;48017;51.064;7.014;2023-01-04T01:31:45;101468.25;;;7.20;100.00
62059;BME280;48017;51.064;7.014;2023-01-04T01:34:11;101465.09;;;7.13;100.00
62059;BME280;48017;51.064;7.014;2023-01-04T01:36:36;101454.16;;;7.05;100.00
62059;BME280;48017;51.064;7.014;2023-01-04T01:39:02;101447.31;;;7.01;100.00
62059;BME280;48017;51.064;7.014;2023-01-04T01:41:30;101451.50;;;7.05;100.00
62059;BME280;48017;51.064;7.014;2023-01-04T01:46:49;101448.59;;;6.94;100.00
62059;BME280;48017;51.064;7.014;2023-01-04T01:49:29;101446.22;;;6.89;100.00
62059;BME280;48017;51.064;7.014;2023-01-04T01:51:59;101444.16;;;6.94;100.00
62059;BME280;48017;51.064;7.014;2023-01-04T01:54:30;101436.34;;;6.93;100.00
62059;BME280;48017;51.064;7.014;2023-01-04T01:56:58;101429.91;;;6.83;100.00
62059;BME280;48017;51.064;7.014;2023-01-04T01:59:24;101431.59;;;6.84;100.00
62059;BME280;48017;51.064;7.014;2023-01-04T02:01:50;101423.78;;;6.82;100.00
62059;BME280;48017;51.064;7.014;2023-01-04T02:04:16;101415.97;;;6.81;100.00
62059;BME280;48017;51.064;7.014;2023-01-04T02:06:46;101427.53;;;6.78;100.00
62059;BME280;48017;51.064;7.014;2023-01-04T02:09:12;101419.00;;;6.73;100.00
62059;BME280;48017;51.064;7.014;2023-01-04T02:11:38;101412.91;;;6.73;100.00
62059;BME280;48017;51.064;7.014;2023-01-04T02:14:04;101408.91;;;6.66;100.00
62059;BME280;48017;51.064;7.014;2023-01-04T02:20:00;101414.78;;;6.71;100.00
62059;BME280;48017;51.064;7.014;2023-01-04T02:31:42;101398.97;;;6.71;100.00
62059;BME280;48017;51.064;7.014;2023-01-04T02:34:24;101388.78;;;6.64;100.00
62059;BME280;48017;51.064;7.014;2023-01-04T02:42:56;101378.38;;;6.61;100.00
62059;BME280;48017;51.064;7.014;2023-01-04T02:46:13;101374.22;;;6.73;100.00
62059;BME280;48017;51.064;7.014;2023-01-04T02:48:41;101376.84;;;6.73;100.00
62059;BME280;48017;51.064;7.014;2023-01-04T02:51:28;101365.63;;;6.70;100.00
62059;BME280;48017;51.064;7.014;2023-01-04T02:53:55;101361.22;;;6.70;100.00
62059;BME280;48017;51.064;7.014;2023-01-04T02:56:30;101358.50;;;6.72;100.00
62059;BME280;48017;51.064;7.014;2023-01-04T02:59:10;101356.47;;;6.77;100.00
62059;BME280;48017;51.064;7.014;2023-01-04T03:04:51;101341.81;;;6.87;100.00
62059;BME280;48017;51.064;7.014;2023-01-04T03:07:45;101338.59;;;6.82;100.00
62059;BME280;48017;51.064;7.014;2023-01-04T03:10:41;101326.75;;;6.89;100.00
62059;BME280;48017;51.064;7.014;2023-01-04T03:13:16;101322.44;;;6.88;100.00
62059;BME280;48017;51.064;7.014;2023-01-04T03:15:45;101326.84;;;6.87;100.00
62059;BME280;48017;51.064;7.014;2023-01-04T03:18:17;101326.47;;;6.93;100.00
62059;BME280;48017;51.064;7.014;2023-01-04T03:20:43;101328.97;;;6.97;100.00
62059;BME280;48017;51.064;7.014;2023-01-04T03:23:13;101319.50;;;6.92;100.00
62059;BME280;48017;51.064;7.014;2023-01-04T03:26:16;101306.19;;;7.10;100.00
62059;BME280;48017;51.064;7.014;2023-01-04T03:29:18;101310.66;;;7.23;100.00
62059;BME280;48017;51.064;7.014;2023-01-04T03:32:08;101304.44;;;7.25;100.00
62059;BME280;48017;51.064;7.014;2023-01-04T03:34:54;101297.94;;;7.30;100.00
62059;BME280;48017;51.064;7.014;2023-01-04T03:40:55;101292.97;;;7.54;100.00
62059;BME280;48017;51.064;7.014;2023-01-04T03:43:48;101291.47;;;7.36;100.00
62059;BME280;48017;51.064;7.014;2023-01-04T03:46:43;101283.34;;;7.53;100.00
62059;BME280;48017;51.064;7.014;2023-01-04T03:49:35;101283.16;;;7.85;100.00
62059;BME280;48017;51.064;7.014;2023-01-04T03:52:04;101296.81;;;8.05;100.00
62059;BME280;48017;51.064;7.014;2023-01-04T03:54:35;101277.19;;;8.09;100.00
62059;BME280;48017;51.064;7.014;2023-01-04T03:57:02;101288.03;;;8.19;100.00
62059;BME280;48017;51.064;7.014;2023-01-04T03:59:28;101281.69;;;8.22;100.00
62059;BME280;48017;51.064;7.014;2023-01-04T04:01:54;101295.00;;;8.20;100.00
62059;BME280;48017;51.064;7.014;2023-01-04T04:04:19;101268.19;;;8.26;100.00
62059;BME280;48017;51.064;7.014;2023-01-04T04:07:04;101271.66;;;8.27;100.00
62059;BME280;48017;51.064;7.014;2023-01-04T04:09:47;101252.31;;;8.26;100.00
62059;BME280;48017;51.064;7.014;2023-01-04T04:12:13;101253.00;;;8.30;100.00
62059;BME280;48017;51.064;7.014;2023-01-04T04:14:38;101251.00;;;8.33;100.00
62059;BME280;48017;51.064;7.014;2023-01-04T04:17:04;101247.16;;;8.39;100.00
62059;BME280;48017;51.064;7.014;2023-01-04T04:19:29;101230.97;;;8.44;100.00
62059;BME280;48017;51.064;7.014;2023-01-04T04:21:54;101237.59;;;8.36;100.00
62059;BME280;48017;51.064;7.014;2023-01-04T04:24:22;101254.03;;;8.42;100.00
62059;BME280;48017;51.064;7.014;2023-01-04T04:26:49;101257.91;;;8.36;100.00
62059;BME280;48017;51.064;7.014;2023-01-04T04:29:14;101238.56;;;8.35;100.00
62059;BME280;48017;51.064;7.014;2023-01-04T04:31:40;101236.09;;;8.32;100.00
62059;BME280;48017;51.064;7.014;2023-01-04T04:34:05;101239.31;;;8.23;100.00
62059;BME280;48017;51.064;7.014;2023-01-04T04:36:31;101237.88;;;8.32;100.00
62059;BME280;48017;51.064;7.014;2023-01-04T04:38:56;101242.59;;;8.41;100.00
62059;BME280;48017;51.064;7.014;2023-01-04T04:41:21;101242.31;;;8.31;100.00
62059;BME280;48017;51.064;7.014;2023-01-04T04:44:17;101234.97;;;8.36;100.00
62059;BME280;48017;51.064;7.014;2023-01-04T04:46:44;101241.91;;;8.52;100.00
62059;BME280;48017;51.064;7.014;2023-01-04T04:49:10;101235.97;;;8.48;100.00
62059;BME280;48017;51.064;7.014;2023-01-04T04:51:36;101220.53;;;8.42;100.00
62059;BME280;48017;51.064;7.014;2023-01-04T04:54:02;101229.19;;;8.44;100.00
62059;BME280;48017;51.064;7.014;2023-01-04T04:56:28;101219.88;;;8.39;100.00
62059;BME280;48017;51.064;7.014;2023-01-04T04:58:53;101222.84;;;8.47;100.00
62059;BME280;48017;51.064;7.014;2023-01-04T05:01:19;101217.91;;;8.55;100.00
62059;BME280;48017;51.064;7.014;2023-01-04T05:03:44;101220.53;;;8.55;100.00
62059;BME280;48017;51.064;7.014;2023-01-04T05:06:09;101229.44;;;8.54;100.00
62059;BME280;48017;51.064;7.014;2023-01-04T05:08:35;101217.38;;;8.50;100.00
62059;BME280;48017;51.064;7.014;2023-01-04T05:11:07;101210.19;;;8.52;100.00
62059;BME280;48017;51.064;7.014;2023-01-04T05:13:33;101202.88;;;8.55;100.00
62059;BME280;48017;51.064;7.014;2023-01-04T05:15:59;101208.50;;;8.51;100.00
62059;BME280;48017;51.064;7.014;2023-01-04T05:18:24;101208.84;;;8.59;100.00
62059;BME280;48017;51.064;7.014;2023-01-04T05:20:50;101205.13;;;8.49;100.00
62059;BME280;48017;51.064;7.014;2023-01-04T05:23:16;101198.09;;;8.48;100.00
62059;BME280;48017;51.064;7.014;2023-01-04T05:25:43;101211.88;;;8.53;100.00
62059;BME280;48017;51.064;7.014;2023-01-04T05:28:09;101202.78;;;8.57;100.00
62059;BME280;48017;51.064;7.014;2023-01-04T05:30:34;101189.50;;;8.58;100.00
62059;BME280;48017;51.064;7.014;2023-01-04T05:33:16;101189.50;;;8.71;100.00
62059;BME280;48017;51.064;7.014;2023-01-04T05:35:42;101196.88;;;8.66;100.00
62059;BME280;48017;51.064;7.014;2023-01-04T05:38:07;101198.06;;;8.62;100.00
62059;BME280;48017;51.064;7.014;2023-01-04T05:40:32;101192.34;;;8.68;100.00
62059;BME280;48017;51.064;7.014;2023-01-04T05:42:58;101185.34;;;8.67;100.00
62059;BME280;48017;51.064;7.014;2023-01-04T05:45:23;101184.41;;;8.68;100.00
62059;BME280;48017;51.064;7.014;2023-01-04T05:47:50;101183.56;;;8.68;100.00
62059;BME280;48017;51.064;7.014;2023-01-04T05:50:17;101181.25;;;8.76;100.00
62059;BME280;48017;51.064;7.014;2023-01-04T05:52:42;101166.03;;;8.79;100.00
62059;BME280;48017;51.064;7.014;2023-01-04T05:55:08;101173.97;;;8.79;100.00
62059;BME280;48017;51.064;7.014;2023-01-04T05:57:34;101165.38;;;8.88;100.00
62059;BME280;48017;51.064;7.014;2023-01-04T05:59:59;101167.50;;;8.96;100.00
62059;BME280;48017;51.064;7.014;2023-01-04T06:02:29;101143.59;;;8.98;100.00
62059;BME280;48017;51.064;7.014;2023-01-04T06:04:55;101146.34;;;8.96;100.00
62059;BME280;48017;51.064;7.014;2023-01-04T06:07:20;101149.72;;;8.98;100.00
62059;BME280;48017;51.064;7.014;2023-01-04T06:09:46;101143.59;;;8.98;100.00
62059;BME280;48017;51.064;7.014;2023-01-04T06:12:11;101140.75;;;9.01;100.00
62059;BME280;48017;51.064;7.014;2023-01-04T06:14:37;101132.38;;;9.07;100.00
62059;BME280;48017;51.064;7.014;2023-01-04T06:17:03;101155.34;;;9.06;100.00
62059;BME280;48017;51.064;7.014;2023-01-04T06:19:29;101131.53;;;9.06;100.00
62059;BME280;48017;51.064;7.014;2023-01-04T06:21:54;101128.88;;;9.19;100.00
62059;BME280;48017;51.064;7.014;2023-01-04T06:24:20;101127.53;;;9.13;100.00
62059;BME280;48017;51.064;7.014;2023-01-04T06:26:46;101123.59;;;9.06;100.00
62059;BME280;48017;51.064;7.014;2023-01-04T06:29:11;101125.50;;;9.17;100.00
62059;BME280;48017;51.064;7.014;2023-01-04T06:31:37;101126.22;;;9.19;100.00
62059;BME280;48017;51.064;7.014;2023-01-04T06:34:02;101129.09;;;9.16;100.00
62059;BME280;48017;51.064;7.014;2023-01-04T06:36:28;101128.03;;;9.18;100.00
62059;BME280;48017;51.064;7.014;2023-01-04T06:38:56;101119.81;;;9.10;100.00
62059;BME280;48017;51.064;7.014;2023-01-04T06:41:21;101105.75;;;9.10;100.00
62059;BME280;48017;51.064;7.014;2023-01-04T06:43:47;101107.84;;;9.05;100.00
62059;BME280;48017;51.064;7.014;2023-01-04T06:46:13;101111.75;;;9.12;100.00
62059;BME280;48017;51.064;7.014;2023-01-04T06:48:38;101114.59;;;9.09;100.00
62059;BME280;48017;51.064;7.014;2023-01-04T06:51:04;101114.91;;;9.17;100.00
62059;BME280;48017;51.064;7.014;2023-01-04T06:53:29;101107.28;;;9.25;100.00
62059;BME280;48017;51.064;7.014;2023-01-04T06:55:55;101099.78;;;9.19;100.00
62059;BME280;48017;51.064;7.014;2023-01-04T06:58:20;101105.91;;;9.19;100.00
62059;BME280;48017;51.064;7.014;2023-01-04T07:00:45;101115.00;;;9.28;100.00
62059;BME280;48017;51.064;7.014;2023-01-04T07:03:11;101109.19;;;9.23;100.00
62059;BME280;48017;51.064;7.014;2023-01-04T07:05:36;101102.09;;;9.23;100.00
62059;BME280;48017;51.064;7.014;2023-01-04T07:08:02;101118.72;;;9.26;100.00
62059;BME280;48017;51.064;7.014;2023-01-04T07:10:28;101107.81;;;9.30;100.00
62059;BME280;48017;51.064;7.014;2023-01-04T07:12:54;101101.09;;;9.37;100.00
62059;BME280;48017;51.064;7.014;2023-01-04T07:15:19;101127.53;;;9.50;100.00
62059;BME280;48017;51.064;7.014;2023-01-04T07:17:49;101115.84;;;9.41;100.00
62059;BME280;48017;51.064;7.014;2023-01-04T07:20:15;101103.03;;;9.35;100.00
62059;BME280;48017;51.064;7.014;2023-01-04T07:22:40;101105.56;;;9.37;100.00
62059;BME280;48017;51.064;7.014;2023-01-04T07:25:06;101093.47;;;9.45;100.00
62059;BME280;48017;51.064;7.014;2023-01-04T07:27:31;101097.56;;;9.49;100.00
62059;BME280;48017;51.064;7.014;2023-01-04T07:29:57;101092.75;;;9.43;100.00
62059;BME280;48017;51.064;7.014;2023-01-04T07:32:22;101096.84;;;9.47;100.00
62059;BME280;48017;51.064;7.014;2023-01-04T07:34:47;101080.97;;;9.47;100.00
62059;BME280;48017;51.064;7.014;2023-01-04T07:37:13;101084.88;;;9.55;100.00
62059;BME280;48017;51.064;7.014;2023-01-04T07:39:39;101101.72;;;9.53;100.00
62059;BME280;48017;51.064;7.014;2023-01-04T07:42:05;101094.25;;;9.59;100.00
62059;BME280;48017;51.064;7.014;2023-01-04T07:44:30;101092.44;;;9.72;100.00
62059;BME280;48017;51.064;7.014;2023-01-04T07:46:56;101083.66;;;9.71;100.00
62059;BME280;48017;51.064;7.014;2023-01-04T07:49:21;101090.56;;;9.85;100.00
62059;BME280;48017;51.064;7.014;2023-01-04T07:51:47;101085.22;;;9.74;100.00
62059;BME280;48017;51.064;7.014;2023-01-04T07:54:17;101084.31;;;9.86;100.00
62059;BME280;48017;51.064;7.014;2023-01-04T07:56:44;101089.59;;;9.86;100.00
62059;BME280;48017;51.064;7.014;2023-01-04T07:59:11;101087.19;;;9.83;100.00
62059;BME280;48017;51.064;7.014;2023-01-04T08:01:37;101101.28;;;9.84;100.00
62059;BME280;48017;51.064;7.014;2023-01-04T08:04:07;101106.41;;;9.74;100.00
62059;BME280;48017;51.064;7.014;2023-01-04T08:06:33;101106.16;;;9.77;100.00
62059;BME280;48017;51.064;7.014;2023-01-04T08:08:59;101111.16;;;9.81;100.00
62059;BME280;48017;51.064;7.014;2023-01-04T08:11:24;101101.28;;;9.84;100.00
62059;BME280;48017;51.064;7.014;2023-01-04T08:13:50;101103.09;;;9.83;100.00
62059;BME280;48017;51.064;7.014;2023-01-04T08:16:23;101099.47;;;9.84;100.00
62059;BME280;48017;51.064;7.014;2023-01-04T08:18:57;101104.81;;;9.95;100.00
62059;BME280;48017;51.064;7.014;2023-01-04T08:21:23;101102.44;;;9.79;100.00
62059;BME280;48017;51.064;7.014;2023-01-04T08:23:49;101111.53;;;9.88;100.00
62059;BME280;48017;51.064;7.014;2023-01-04T08:26:15;101109.28;;;9.95;100.00
62059;BME280;48017;51.064;7.014;2023-01-04T08:28:41;101115.19;;;9.98;100.00
62059;BME280;48017;51.064;7.014;2023-01-04T08:31:13;101108.31;;;9.96;100.00
62059;BME280;48017;51.064;7.014;2023-01-04T08:33:39;101110.53;;;10.02;100.00
62059;BME280;48017;51.064;7.014;2023-01-04T08:36:10;101107.75;;;10.03;100.00
62059;BME280;48017;51.064;7.014;2023-01-04T08:38:36;101106.28;;;9.99;100.00
62059;BME280;48017;51.064;7.014;2023-01-04T08:41:01;101108.25;;;10.08;100.00
62059;BME280;48017;51.064;7.014;2023-01-04T08:43:27;101100.28;;;10.08;100.00
62059;BME280;48017;51.064;7.014;2023-01-04T08:45:52;101100.09;;;10.12;100.00
62059;BME280;48017;51.064;7.014;2023-01-04T08:48:18;101094.25;;;10.06;100.00
62059;BME280;48017;51.064;7.014;2023-01-04T08:50:43;101090.81;;;10.17;100.00
62059;BME280;48017;51.064;7.014;2023-01-04T08:53:08;101102.63;;;10.13;100.00
62059;BME280;48017;51.064;7.014;2023-01-04T08:55:35;101088.28;;;10.16;100.00
62059;BME280;48017;51.064;7.014;2023-01-04T08:58:00;101092.84;;;10.14;100.00
62059;BME280;48017;51.064;7.014;2023-01-04T09:00:26;101085.88;;;10.13;100.00
62059;BME280;48017;51.064;7.014;2023-01-04T09:02:51;101086.84;;;10.12;100.00
62059;BME280;48017;51.064;7.014;2023-01-04T09:05:17;101088.75;;;10.21;100.00
62059;BME280;48017;51.064;7.014;2023-01-04T09:07:43;101080.22;;;10.17;100.00
62059;BME280;48017;51.064;7.014;2023-01-04T09:10:08;101085.03;;;10.12;100.00
62059;BME280;48017;51.064;7.014;2023-01-04T09:12:34;101076.13;;;10.13;100.00
62059;BME280;48017;51.064;7.014;2023-01-04T09:14:59;101077.16;;;10.10;100.00
62059;BME280;48017;51.064;7.014;2023-01-04T09:17:24;101068.03;;;10.15;100.00
62059;BME280;48017;51.064;7.014;2023-01-04T09:19:50;101084.97;;;10.25;100.00
62059;BME280;48017;51.064;7.014;2023-01-04T09:22:15;101081.06;;;10.18;100.00
62059;BME280;48017;51.064;7.014;2023-01-04T09:24:40;101081.59;;;10.23;100.00
62059;BME280;48017;51.064;7.014;2023-01-04T09:27:06;101082.94;;;10.28;100.00
62059;BME280;48017;51.064;7.014;2023-01-04T09:29:31;101073.66;;;10.23;100.00
62059;BME280;48017;51.064;7.014;2023-01-04T09:31:57;101075.50;;;10.33;100.00
62059;BME280;48017;51.064;7.014;2023-01-04T09:34:22;101066.44;;;10.25;100.00
62059;BME280;48017;51.064;7.014;2023-01-04T09:36:48;101075.13;;;10.38;100.00
62059;BME280;48017;51.064;7.014;2023-01-04T09:39:14;101072.13;;;10.43;100.00
62059;BME280;48017;51.064;7.014;2023-01-04T09:42:00;101067.44;;;10.46;100.00
62059;BME280;48017;51.064;7.014;2023-01-04T09:44:43;101065.25;;;10.51;100.00
62059;BME280;48017;51.064;7.014;2023-01-04T09:49:56;101061.44;;;10.55;100.00
62059;BME280;48017;51.064;7.014;2023-01-04T09:52:31;101069.16;;;10.70;100.00
62059;BME280;48017;51.064;7.014;2023-01-04T09:55:08;101055.88;;;10.70;100.00
62059;BME280;48017;51.064;7.014;2023-01-04T09:57:46;101052.06;;;10.74;100.00
62059;BME280;48017;51.064;7.014;2023-01-04T10:00:20;101054.19;;;10.80;100.00
62059;BME280;48017;51.064;7.014;2023-01-04T10:03:17;101039.63;;;10.74;100.00
62059;BME280;48017;51.064;7.014;2023-01-04T10:05:45;101039.25;;;10.90;100.00
62059;BME280;48017;51.064;7.014;2023-01-04T10:08:17;101046.03;;;10.94;100.00
62059;BME280;48017;51.064;7.014;2023-01-04T10:18:36;101037.22;;;11.05;100.00
62059;BME280;48017;51.064;7.014;2023-01-04T10:21:15;101036.59;;;11.01;100.00
62059;BME280;48017;51.064;7.014;2023-01-04T10:24:00;101042.97;;;11.10;100.00
62059;BME280;48017;51.064;7.014;2023-01-04T10:27:10;101031.16;;;11.03;100.00
62059;BME280;48017;51.064;7.014;2023-01-04T10:33:11;101034.44;;;11.06;100.00
62059;BME280;48017;51.064;7.014;2023-01-04T10:35:36;101036.34;;;10.93;100.00
62059;BME280;48017;51.064;7.014;2023-01-04T10:38:11;101039.50;;;10.87;100.00
62059;BME280;48017;51.064;7.014;2023-01-04T10:40:38;101037.09;;;10.84;100.00
62059;BME280;48017;51.064;7.014;2023-01-04T10:45:48;101038.53;;;10.77;100.00
62059;BME280;48017;51.064;7.014;2023-01-04T10:48:26;101023.09;;;10.71;100.00
62059;BME280;48017;51.064;7.014;2023-01-04T10:51:02;101030.09;;;10.72;100.00
62059;BME280;48017;51.064;7.014;2023-01-04T10:53:39;101023.34;;;10.67;100.00
62059;BME280;48017;51.064;7.014;2023-01-04T10:56:17;101023.22;;;10.69;100.00
62059;BME280;48017;51.064;7.014;2023-01-04T10:58:56;101020.34;;;10.83;100.00
62059;BME280;48017;51.064;7.014;2023-01-04T11:01:28;101016.47;;;10.87;100.00
62059;BME280;48017;51.064;7.014;2023-01-04T11:04:20;101004.50;;;10.93;100.00
62059;BME280;48017;51.064;7.014;2023-01-04T11:07:00;101003.16;;;11.10;100.00
62059;BME280;48017;51.064;7.014;2023-01-04T11:09:42;101009.31;;;11.10;100.00
62059;BME280;48017;51.064;7.014;2023-01-04T11:12:12;100991.22;;;11.15;100.00
62059;BME280;48017;51.064;7.014;2023-01-04T11:14:38;100991.03;;;10.96;100.00
62059;BME280;48017;51.064;7.014;2023-01-04T11:17:04;100974.50;;;10.92;100.00
62059;BME280;48017;51.064;7.014;2023-01-04T11:19:31;100983.66;;;11.00;100.00
62059;BME280;48017;51.064;7.014;2023-01-04T11:25:09;100982.56;;;10.91;100.00
62059;BME280;48017;51.064;7.014;2023-01-04T11:27:43;100984.78;;;10.75;100.00
62059;BME280;48017;51.064;7.014;2023-01-04T11:30:54;100980.53;;;10.61;100.00
62059;BME280;48017;51.064;7.014;2023-01-04T11:33:02;100980.66;;;10.48;100.00
62059;BME280;48017;51.064;7.014;2023-01-04T11:38:28;100963.19;;;10.34;100.00
62059;BME280;48017;51.064;7.014;2023-01-04T11:41:00;100961.03;;;10.39;100.00
62059;BME280;48017;51.064;7.014;2023-01-04T11:43:29;100953.06;;;10.28;100.00
62059;BME280;48017;51.064;7.014;2023-01-04T11:46:05;100953.44;;;10.35;100.00
62059;BME280;48017;51.064;7.014;2023-01-04T11:50:58;100949.09;;;10.34;100.00
62059;BME280;48017;51.064;7.014;2023-01-04T11:53:31;100945.97;;;10.40;100.00
62059;BME280;48017;51.064;7.014;2023-01-04T11:58:33;100941.63;;;10.50;100.00
62059;BME280;48017;51.064;7.014;2023-01-04T12:00:58;100947.28;;;10.57;100.00
62059;BME280;48017;51.064;7.014;2023-01-04T12:03:27;100938.19;;;10.93;100.00
62059;BME280;48017;51.064;7.014;2023-01-04T12:05:53;100944.84;;;10.87;100.00
62059;BME280;48017;51.064;7.014;2023-01-04T12:08:38;100946.63;;;10.98;100.00
62059;BME280;48017;51.064;7.014;2023-01-04T12:11:05;100949.75;;;11.03;100.00
62059;BME280;48017;51.064;7.014;2023-01-04T12:13:35;100940.31;;;11.10;100.00
62059;BME280;48017;51.064;7.014;2023-01-04T12:18:45;100954.13;;;11.36;100.00
62059;BME280;48017;51.064;7.014;2023-01-04T12:21:22;100943.06;;;11.52;100.00
62059;BME280;48017;51.064;7.014;2023-01-04T12:23:48;100933.22;;;11.64;100.00
62059;BME280;48017;51.064;7.014;2023-01-04T12:26:15;100925.03;;;11.67;100.00
62059;BME280;48017;51.064;7.014;2023-01-04T12:28:43;100929.66;;;11.74;100.00
62059;BME280;48017;51.064;7.014;2023-01-04T12:33:44;100930.38;;;11.88;100.00
62059;BME280;48017;51.064;7.014;2023-01-04T12:36:12;100903.94;;;11.86;100.00
62059;BME280;48017;51.064;7.014;2023-01-04T12:41:23;100918.97;;;11.97;100.00
62059;BME280;48017;51.064;7.014;2023-01-04T12:52:51;100911.63;;;11.89;100.00
62059;BME280;48017;51.064;7.014;2023-01-04T12:55:49;100909.75;;;11.80;100.00
62059;BME280;48017;51.064;7.014;2023-01-04T13:08:14;100896.91;;;11.85;100.00
62059;BME280;48017;51.064;7.014;2023-01-04T13:10:48;100890.75;;;11.85;100.00
62059;BME280;48017;51.064;7.014;2023-01-04T13:13:41;100875.47;;;11.77;100.00
62059;BME280;48017;51.064;7.014;2023-01-04T13:18:51;100878.31;;;11.85;100.00
62059;BME280;48017;51.064;7.014;2023-01-04T13:23:57;100883.63;;;11.85;100.00
62059;BME280;48017;51.064;7.014;2023-01-04T13:26:28;100883.56;;;11.75;100.00
62059;BME280;48017;51.064;7.014;2023-01-04T13:29:25;100882.59;;;11.76;100.00
62059;BME280;48017;51.064;7.014;2023-01-04T13:31:56;100893.72;;;11.70;100.00
62059;BME280;48017;51.064;7.014;2023-01-04T13:37:37;100898.06;;;11.71;100.00
62059;BME280;48017;51.064;7.014;2023-01-04T13:40:21;100894.97;;;11.66;100.00
62059;BME280;48017;51.064;7.014;2023-01-04T13:43:02;100885.44;;;11.64;100.00
62059;BME280;48017;51.064;7.014;2023-01-04T13:47:59;100877.66;;;11.72;100.00
62059;BME280;48017;51.064;7.014;2023-01-04T13:50:40;100885.50;;;11.73;100.00
62059;BME280;48017;51.064;7.014;2023-01-04T13:53:34;100888.38;;;11.81;100.00
62059;BME280;48017;51.064;7.014;2023-01-04T13:56:01;100880.03;;;11.86;100.00
62059;BME280;48017;51.064;7.014;2023-01-04T13:58:29;100873.88;;;11.86;100.00
62059;BME280;48017;51.064;7.014;2023-01-04T14:01:02;100880.13;;;11.85;100.00
62059;BME280;48017;51.064;7.014;2023-01-04T14:03:35;100883.31;;;11.78;100.00
62059;BME280;48017;51.064;7.014;2023-01-04T14:06:24;100854.31;;;11.87;100.00
62059;BME280;48017;51.064;7.014;2023-01-04T14:09:13;100874.25;;;11.81;100.00
62059;BME280;48017;51.064;7.014;2023-01-04T14:16:50;100873.78;;;11.97;100.00
62059;BME280;48017;51.064;7.014;2023-01-04T14:30:41;100884.84;;;12.02;100.00
62059;BME280;48017;51.064;7.014;2023-01-04T14:35:44;100843.78;;;12.16;100.00
62059;BME280;48017;51.064;7.014;2023-01-04T14:38:13;100919.09;;;12.26;100.00
62059;BME280;48017;51.064;7.014;2023-01-04T14:40:40;100847.59;;;12.23;100.00
62059;BME280;48017;51.064;7.014;2023-01-04T14:43:35;100845.91;;;12.22;100.00
62059;BME280;48017;51.064;7.014;2023-01-04T14:46:01;100853.75;;;12.23;100.00
62059;BME280;48017;51.064;7.014;2023-01-04T14:48:28;100859.53;;;12.28;100.00
62059;BME280;48017;51.064;7.014;2023-01-04T14:50:53;100847.63;;;12.32;100.00
62059;BME280;48017;51.064;7.014;2023-01-04T14:53:19;100867.50;;;12.28;100.00
62059;BME280;48017;51.064;7.014;2023-01-04T14:55:45;100865.81;;;12.27;100.00